Tiempo atmosférico en la estación meteorológica de Aranda De Duero, Burgos (790 m.)



Fecha
DESCASC
Temp. máxima en grados centígrados (hora)
DESCASC
Temp. mínima en grados centígrados (hora)
DESCASC
Temp. media en grados centígrados
DESCASC
Racha de viento máxima en m/sg (hora)
DESCASC
Velocidad máxima media en intervalos de 10 minutos(hora)
DESCASC
Precipitaciones diarias en mm
DESCASC
Precipitaciones de 00:00 a 06:00 en mm
DESCASC
Precipitaciones de 06:00 a 12:00 en mm
DESCASC
Precipitaciones de 12:00 a 18:00 en mm
DESCASC
Precipitaciones de 18:00 a 24:00 en mm
DESCASC
17-08-2018 26.9 (16:00) 13 (07:30) 19.9 11.67 (18:10) 5.28 (18:00) 0 0 0 0 0
16-08-2018 33 (16:30) 11.5 (07:50) 22.3 9.44 (18:30) 4.17 (18:40) 0 0 0 0 0
15-08-2018 32.7 (16:50) 6.9 (07:30) 19.8 10 (09:50) 4.17 (09:50) 0 0 0 0 0
14-08-2018 28.1 (17:10) 10.7 (07:40) 19.4 8.33 (18:50) 4.17 (18:50) 0 0 0 0 0
13-08-2018 30.5 (16:50) 11.9 (07:30) 21.2 7.78 (13:50) 2.5 (21:30) 0 0 0 0 0
12-08-2018 35.1 (16:40) 11.6 (00:00) 23.3 11.39 (14:20) 3.61 (15:20) 0 0 0 0 0
11-08-2018 33.9 (16:40) 16 (00:00) 25 8.61 (17:00) 3.33 (05:20) 0 0 0 0 0
10-08-2018 30.6 (17:50) 8.9 (00:00) 19.8 10.56 (10:10) 5 (10:10) 0 0 0 0 0
09-08-2018 24.8 (15:40) 14.7 (00:00) 19.7 9.44 (18:10) 4.44 (18:10) 0 0 0 0 0
08-08-2018 33.2 (17:00) 10.6 (00:00) 21.9 8.33 (18:30) 2.78 (14:40) 0 0 0 0 0
07-08-2018 31.4 (17:30) 14.6 (00:00) 23 9.72 (17:10) 3.89 (02:20) 0 0 0 0 0
06-08-2018 36.4 (18:00) 12.2 (00:00) 24.3 6.39 (15:00) 1.67 (13:30) 0 0 0 0 0
05-08-2018 36.8 (17:10) 11.8 (00:00) 24.3 6.39 (19:10) 2.5 (20:00) 0 0 0 0 0
04-08-2018 34.8 (16:40) 13.7 (07:30) 24.2 10 (19:40) 4.17 (19:20) 0 0 0 0 0
03-08-2018 36.1 (16:50) 14.6 (00:00) 25.3 10.28 (18:20) 3.89 (18:20) 0 0 0 0 0
02-08-2018 38.6 (16:50) 15.1 (00:00) 26.8 7.78 (17:50) 3.33 (09:20) 0 0 0 0 0
01-08-2018 36.3 (17:30) 13.5 (07:20) 24.9 7.78 (09:30) 3.89 (09:40) 0 0 0 0 0
31-07-2018 34.3 (17:50) 12.4 (00:00) 23.3 6.11 (17:00) 1.94 (18:40) 0 0 0 0 0
30-07-2018 33.4 (17:00) 10.2 (00:00) 21.8 8.33 (16:50) 2.78 (16:30) 0 0 0 0 0
29-07-2018 32.3 (17:00) 11 (00:00) 21.6 9.17 (15:20) 3.33 (15:10) 0 0 0 0 0
28-07-2018 32.1 (17:50) 12.2 (00:00) 22.1 7.78 (16:50) 2.5 (18:10) 0 0 0 0 0
27-07-2018 32.8 (18:00) 13.6 (00:00) 23.2 11.67 (16:00) 3.61 (16:10) 0 0 0 0 0
26-07-2018 34.7 (17:10) 12.4 (00:00) 23.6 8.89 (14:30) 3.33 (14:10) 0 0 0 0 0
25-07-2018 35.4 (18:10) 12.4 (00:00) 23.9 7.78 (18:00) 2.5 (16:20) 0 0 0 0 0
24-07-2018 33.8 (17:00) 15.4 (00:00) 24.6 6.39 (11:50) 2.5 (06:30) 0 0 0 0 0
23-07-2018 34.5 (17:10) 13.9 (00:00) 24.2 9.17 (14:40) 3.89 (09:30) 0 0 0 0 0
22-07-2018 30.2 (17:50) 9.6 (00:00) 19.9 6.67 (20:50) 2.78 (20:40) 0 0 0 0 0
21-07-2018 23.4 (16:20) 10 (00:00) 16.7 5.28 (17:40) 2.22 (18:50) 0 0 0 0 0
20-07-2018 28.4 (15:50) 11.8 (00:00) 20.1 12.5 (17:50) 5 (17:10) 1.4 0 0 0 1.4

Gráficas

Temp. máximas Temp. mínimas Temp. medias Precipitaciones Rachas de viento máximas Velocidades máximas media en intervalos de 10 minutos

Datos horarios

Fecha y hora oficial Temperatura (ºC) Velocidad del viento (km/h) Dirección del viento Racha (km/h) Dirección de racha Precipitación (mm) Presión (hPa) Tendencia (hPa) Humedad (%)
2018-08-18 23:00:00 16.8 0 Calma 11 Este 0 930.5 1.6 51
2018-08-18 22:00:00 19.5 2 Sudeste 8 Norte 0 929.9 1.2 43
2018-08-18 21:00:00 22 5 Norte 19 Noroeste 0 929.3 0.5 34
2018-08-18 20:00:00 24.3 9 Norte 24 Noroeste 0 928.9 -0.2 28
2018-08-18 19:00:00 26.2 6 Noroeste 19 Noroeste 0 928.7 -0.9 21
2018-08-18 18:00:00 27.4 4 Oeste 19 Sudoeste 0 928.8 -1.4 13
2018-08-18 17:00:00 28 3 Sur 15 Sudoeste 0 929.1 -1.5 17
2018-08-18 16:00:00 25.4 5 Norte 14 Noroeste 0 929.6 -1.6 21
2018-08-18 15:00:00 24.1 5 Sur 22 Sudeste 0 930.2 -1.4 26
2018-08-18 14:00:00 22.2 4 Este 20 Este 0 930.6 -1.1 31
2018-08-18 13:00:00 21.3 5 Nordeste 21 Sudeste 0 931.2 -0.5 37
2018-08-18 12:00:00 19.5 7 Este 17 Este 0 931.6 -0.1 39
2018-08-18 11:00:00 17.4 9 Este 19 Este 0 931.7 0.1 46
2018-08-18 10:00:00 15.4 10 Este 20 Este 0 931.7 0.3 53
2018-08-18 09:00:00 13 6 Este 12 Sudeste 0 931.7 0.4 64
2018-08-18 08:00:00 8.3 0 Calma 4 Sudoeste 0 931.6 0.1 77
2018-08-18 07:00:00 7.3 0 Calma 4 Sudoeste 0 931.4 0.1 79
2018-08-18 06:00:00 8.1 0 Calma 4 Nordeste 0 931.3 -0.4 78
2018-08-18 05:00:00 8.9 0 Calma 5 Nordeste 0 931.5 -0.2 77
2018-08-18 04:00:00 9.6 0 Calma 4 Sudoeste 0 931.3 -0.4 75
2018-08-18 03:00:00 10.5 2 Sudoeste 5 Oeste 0 931.7 0.1 72
2018-08-18 02:00:00 12 0 Calma 8 Nordeste 0 931.7 0.5 70
2018-08-18 01:00:00 13 2 Nordeste 13 Nordeste 0 931.7 0.9 69
2018-08-18 00:00:00 14 4 Nordeste 16 Norte 0 931.6 1.5 66
2018-08-17 23:00:00 14.9 6 Norte 17 Noroeste 0 931.2 2.2 64
2018-08-17 22:00:00 16 7 Norte 27 Norte 0 930.8 2.4 61
2018-08-17 21:00:00 18 9 Norte 32 Norte 0 930.1 2.1 55
2018-08-17 20:00:00 21.2 10 Norte 33 Norte 0 929 1 46
2018-08-17 19:00:00 22.9 17 Norte 42 Noroeste 0 928.4 -0.2 41
2018-08-17 18:00:00 24.7 19 Norte 39 Norte 0 928 -1.2 38
2018-08-17 17:00:00 26.5 15 Norte 33 Norte 0 928 -1.2 36
2018-08-17 16:00:00 26.5 5 Sudeste 25 Sudeste 0 928.6 -0.9 33
2018-08-17 15:00:00 25.6 7 Este 18 Este 0 929.2 -0.5 38
2018-08-17 14:00:00 25.2 6 Este 17 Sudeste 0 929.2 -0.5 39
2018-08-17 13:00:00 25.1 6 Sudeste 24 Sudeste 0 929.5 -0.1 41
2018-08-17 12:00:00 23.8 8 Sudeste 25 Este 0 929.7 0.3 46
2018-08-17 11:00:00 21.9 8 Este 22 Este 0 929.7 0.4 51
2018-08-17 10:00:00 20.6 8 Este 15 Este 0 929.6 1.2 56
2018-08-17 09:00:00 18.2 6 Este 15 Este 0 929.4 1.2 67
2018-08-17 08:00:00 14.6 4 Nordeste 9 Nordeste 0 929.3 1.1 82
2018-08-17 07:00:00 13.4 0 Calma 6 Sudeste 0 928.4 -0.1 80
2018-08-17 06:00:00 14.8 3 Nordeste 10 Noroeste 0 928.2 -0.2 77
2018-08-17 05:00:00 15.4 4 Nordeste 15 Nordeste 0 928.2 0.3 75
2018-08-17 04:00:00 16.2 4 Norte 15 Norte 0 928.5 0.8 75
2018-08-17 03:00:00 16.2 6 Norte 20 Norte 0 928.4 0.9 75
2018-08-17 02:00:00 17.4 4 Nordeste 10 Nordeste 0 927.9 0.8 66
2018-08-17 01:00:00 19.2 4 Nordeste 14 Este 0 927.7 1.7 57
2018-08-17 00:00:00 18.9 3 Este 10 Nordeste 0 927.5 2.3 57
2018-08-16 23:00:00 20.1 5 Norte 11 Norte 0 927.1 2.2 57
2018-08-16 22:00:00 22.1 5 Norte 17 Norte 0 926 1.4 49
2018-08-16 21:00:00 24.1 7 Norte 31 Norte 0 925.2 0.4 42
2018-08-16 20:00:00 25.9 11 Norte 30 Norte 0 924.9 0 38
2018-08-16 19:00:00 27.9 13 Norte 34 Norte 0 924.6 -0.6 30
2018-08-16 18:00:00 29.8 8 Norte 25 Norte 0 924.8 -1.1 26
2018-08-16 17:00:00 30.6 9 Norte 26 Noroeste 0 924.9 -1.3 25
2018-08-16 16:00:00 32.2 8 Sudoeste 29 Oeste 0 925.2 -1.6 18
2018-08-16 15:00:00 30.6 8 Sudoeste 25 Sudoeste 0 925.9 -1.1 17
2018-08-16 14:00:00 29.5 7 Oeste 19 Sudoeste 0 926.2 -0.8 20
2018-08-16 13:00:00 28.8 3 Noroeste 10 Sudoeste 0 926.8 0 24
2018-08-16 12:00:00 26.7 4 Noroeste 10 Sudoeste 0 927 0.2 32
2018-08-16 11:00:00 24 2 Norte 7 Norte 0 927 0.5 36
2018-08-16 10:00:00 20.2 2 Nordeste 7 Este 0 926.8 0.7 50
2018-08-16 09:00:00 15 0 Calma 4 Oeste 0 926.8 0.8 73
2018-08-16 08:00:00 11.8 0 Calma 4 Sudoeste 0 926.5 0.5 79
2018-08-16 07:00:00 11.9 0 Calma 4 Sudoeste 0 926.1 0 76
2018-08-16 06:00:00 13.5 2 Este 4 Este 0 926 -0.4 69
2018-08-16 05:00:00 15.3 2 Sudoeste 8 Sudeste 0 926 -0.5 67
2018-08-16 04:00:00 16.6 4 Sudeste 7 Sudeste 0 926.1 -0.6 61
2018-08-16 03:00:00 18.3 4 Este 10 Este 0 926.4 -0.1 56
2018-08-16 02:00:00 15.6 4 Este 6 Este 0 926.5 0.2 62
2018-08-16 01:00:00 16.1 3 Este 10 Este 0 926.7 0.8 54
2018-08-16 00:00:00 17.7 0 Calma 4 Sudoeste 0 926.5 1.1 55
2018-08-15 23:00:00 19.3 0 Calma 8 Norte 0 926.3 1 40
2018-08-15 22:00:00 21.6 0 Calma 4 Sudoeste 0 925.9 0.3 41
2018-08-15 21:00:00 26 0 Calma 8 Noroeste 0 925.4 -0.6 29
2018-08-15 20:00:00 28.8 3 Norte 12 Oeste 0 925.3 -1.1 17
2018-08-15 19:00:00 30.1 6 Oeste 18 Noroeste 0 925.6 -1.3 14
2018-08-15 18:00:00 31.7 7 Noroeste 20 Noroeste 0 926 -1.4 14
2018-08-15 17:00:00 32.1 4 Noroeste 23 Oeste 0 926.4 -1.5 14
2018-08-15 16:00:00 30.8 5 Oeste 21 Oeste 0 926.9 -1.5 16
2018-08-15 15:00:00 29.5 6 Sudoeste 17 Sudoeste 0 927.4 -1.4 18
2018-08-15 14:00:00 27.5 3 Oeste 14 Oeste 0 927.9 -1.1 24
2018-08-15 13:00:00 26.2 6 Este 21 Sudeste 0 928.4 -0.9 30
2018-08-15 12:00:00 23.9 10 Sudeste 30 Sudeste 0 928.8 -0.8 34
2018-08-15 11:00:00 20.9 10 Este 30 Sudeste 0 929 -0.5 43
2018-08-15 10:00:00 17.9 14 Este 36 Sudeste 0 929.3 -0.3 51
2018-08-15 09:00:00 13.8 9 Este 18 Este 0 929.6 0 67
2018-08-15 08:00:00 8.7 0 Calma 4 Sudoeste 0 929.5 -0.2 81
2018-08-15 07:00:00 7.1 0 Calma 3 Este 0 929.6 -0.3 84
2018-08-15 06:00:00 7.9 0 Calma 4 Sudoeste 0 929.6 -0.4 80
2018-08-15 05:00:00 8.6 2 Sudoeste 4 Sudoeste 0 929.7 -0.5 79
2018-08-15 04:00:00 9.4 0 Calma 5 Sudoeste 0 929.9 -0.2 79
2018-08-15 03:00:00 10.4 2 Este 4 Sudeste 0 930 0.1 78
2018-08-15 02:00:00 11.6 0 Calma 5 Sudoeste 0 930.2 0.4 78
2018-08-15 01:00:00 12.8 4 Sudoeste 8 Sudoeste 0 930.1 0.6 73
2018-08-15 00:00:00 15.3 3 Sudoeste 7 Sudoeste 0 929.9 0.8 62
2018-08-14 23:00:00 17.6 2 Sudoeste 14 Noroeste 0 929.8 1.1 56
2018-08-14 22:00:00 19.3 6 Noroeste 18 Norte 0 929.5 0.6 49
2018-08-14 21:00:00 21.6 6 Noroeste 26 Noroeste 0 929.1 0.1 41
2018-08-14 20:00:00 23.9 10 Noroeste 26 Noroeste 0 928.7 -0.4 33
2018-08-14 19:00:00 25.1 13 Noroeste 30 Noroeste 0 928.9 -0.5 28
2018-08-14 18:00:00 27.1 12 Noroeste 28 Noroeste 0 929 -0.8 24
2018-08-14 17:00:00 27.9 12 Noroeste 29 Noroeste 0 929.1 -1 25
2018-08-14 16:00:00 27.3 8 Noroeste 27 Oeste 0 929.4 -1.1 28
2018-08-14 15:00:00 26.5 5 Oeste 16 Norte 0 929.8 -0.9 27
2018-08-14 14:00:00 25.1 3 Sur 16 Norte 0 930.1 -0.5 32
2018-08-14 13:00:00 23.9 4 Nordeste 17 Noroeste 0 930.5 0 38
2018-08-14 12:00:00 22.4 2 Este 14 Sudeste 0 930.7 0.6 47
2018-08-14 11:00:00 21.1 3 Norte 14 Este 0 930.6 1 54
2018-08-14 10:00:00 19.3 5 Nordeste 10 Este 0 930.5 1.2 60
2018-08-14 09:00:00 16.8 0 Calma 4 Norte 0 930.1 1.3 68
2018-08-14 08:00:00 12 0 Calma 4 Sudoeste 0 929.6 0.8 82
2018-08-14 07:00:00 11.1 0 Calma 4 Sudoeste 0 929.3 0.7 83
2018-08-14 06:00:00 12.5 0 Calma 8 Este 0 928.8 0.5 77
2018-08-14 05:00:00 13.2 2 Norte 7 Norte 0 928.8 0.6 81
2018-08-14 04:00:00 12.9 0 Calma 6 Este 0 928.6 0.7 77
2018-08-14 03:00:00 13.8 0 Calma 6 Sudeste 0 928.3 1.1 75
2018-08-14 02:00:00 15.3 0 Calma 11 Noroeste 0 928.2 1.5 75
2018-08-14 01:00:00 16.5 5 Noroeste 14 Noroeste 0 927.9 2.1 70
2018-08-14 00:00:00 18.1 3 Oeste 15 Norte 0 927.2 2.2 63
2018-08-13 23:00:00 20 2 Oeste 16 Norte 0 926.7 1.9 56
2018-08-13 22:00:00 21.8 6 Norte 21 Norte 0 925.8 0.8 51
2018-08-13 21:00:00 25.3 3 Noroeste 20 Oeste 0 925 0 25
2018-08-13 20:00:00 27.3 3 Oeste 16 Sur 0 924.8 -0.6 22
2018-08-13 19:00:00 28.3 5 Sudoeste 22 Sudoeste 0 925 -0.6 19
2018-08-13 18:00:00 29.3 8 Noroeste 21 Sudoeste 0 925 -0.9 15
2018-08-13 17:00:00 30.2 7 Oeste 26 Noroeste 0 925.4 -0.9 17
2018-08-13 16:00:00 29.2 6 Sudoeste 26 Sudoeste 0 925.6 -1.1 19
2018-08-13 15:00:00 27.3 8 Sudoeste 23 Oeste 0 925.9 -1 27
2018-08-13 14:00:00 26.4 8 Oeste 28 Sudoeste 0 926.3 -0.5 30
2018-08-13 13:00:00 26.1 6 Oeste 23 Sudoeste 0 926.7 0.2 37
2018-08-13 12:00:00 25.4 5 Oeste 22 Oeste 0 926.9 0.5 39
2018-08-13 11:00:00 23.9 7 Sudoeste 17 Sudoeste 0 926.8 0.6 43
2018-08-13 10:00:00 22.7 2 Oeste 8 Oeste 0 926.5 0.8 50
2018-08-13 09:00:00 18.2 2 Nordeste 6 Este 0 926.4 1 56
2018-08-13 08:00:00 13.5 0 Calma 4 Este 0 926.2 0.7 72
2018-08-13 07:00:00 12.2 0 Calma 3 Este 0 925.7 0.4 74
2018-08-13 06:00:00 12.9 0 Calma 2 Nordeste 0 925.4 -0.3 69
2018-08-13 05:00:00 13.8 0 Calma 5 Sudoeste 0 925.5 -0.1 67
2018-08-13 04:00:00 14.9 0 Calma 8 Oeste 0 925.3 0 68
2018-08-13 03:00:00 15.4 0 Calma 11 Sudoeste 0 925.7 0.2 62
2018-08-13 02:00:00 15.8 4 Sudoeste 8 Sudoeste 0 925.6 0.3 60
2018-08-13 01:00:00 17 2 Sudoeste 9 Sudoeste 0 925.3 0.5 52
2018-08-13 00:00:00 18.5 2 Sudoeste 5 Oeste 0 925.5 1.3 46
2018-08-12 23:00:00 21.1 0 Calma 6 Sudoeste 0 925.3 2 36
2018-08-12 22:00:00 25 2 Oeste 13 Oeste 0 924.8 1.4 23
2018-08-12 21:00:00 27.9 5 Oeste 32 Noroeste 0 924.2 0.1 16
2018-08-12 20:00:00 30.6 10 Noroeste 28 Noroeste 0 923.3 -0.8 19
2018-08-12 19:00:00 31.4 5 Oeste 22 Sudoeste 0 923.4 -1.5 19
2018-08-12 18:00:00 31.4 3 Sur 27 Sudoeste 0 924.1 -1.5 25
2018-08-12 17:00:00 33.6 6 Oeste 31 Oeste 0 924.1 -1.9 18
2018-08-12 16:00:00 33.2 8 Sudoeste 36 Sudoeste 0 924.9 -2 18
2018-08-12 15:00:00 32.4 7 Sudoeste 41 Sudoeste 0 925.6 -1.9 18
2018-08-12 14:00:00 32.5 5 Oeste 25 Sudoeste 0 926 -1.8 18
2018-08-12 13:00:00 31 3 Oeste 13 Este 0 926.9 -1.2 21
2018-08-12 12:00:00 28.1 6 Este 13 Este 0 927.5 -0.4 27
2018-08-12 11:00:00 24.5 3 Nordeste 8 Este 0 927.8 -0.2 35
2018-08-12 10:00:00 20.9 4 Este 12 Sudeste 0 928.1 0.5 50
2018-08-12 09:00:00 16.8 7 Sudeste 12 Sudeste 0 927.9 0.4 62
2018-08-12 08:00:00 13 2 Este 4 Este 0 928 0.4 72
2018-08-12 07:00:00 11.8 0 Calma 6 Este 0 927.6 -0.4 70
2018-08-12 06:00:00 12.7 0 Calma 9 Este 0 927.5 -0.9 71
2018-08-12 05:00:00 13.1 3 Este 6 Este 0 927.6 -1.4 71
2018-08-12 04:00:00 13.7 0 Calma 3 Sudoeste 0 928 -1 63
2018-08-12 03:00:00 15.1 0 Calma 6 Sudeste 0 928.4 -0.6 64
2018-08-12 02:00:00 15.9 2 Nordeste 8 Sudeste 0 929 -0.2 56
2018-08-12 01:00:00 16.7 2 Este 5 Este 0 929 0.3 58
2018-08-12 00:00:00 18.4 0 Calma 4 Sudeste 0 929 0.5 55
2018-08-11 23:00:00 20.7 0 Calma 3 Este 0 929.2 0.8 40
2018-08-11 22:00:00 23.6 0 Calma 3 Sur 0 928.7 0.1 38
2018-08-11 21:00:00 27.8 0 Calma 14 Noroeste 0 928.5 -0.4 28
2018-08-11 20:00:00 30.4 6 Noroeste 18 Noroeste 0 928.4 -1.1 17
2018-08-11 19:00:00 31.5 5 Oeste 24 Noroeste 0 928.6 -1.6 16
2018-08-11 18:00:00 33.6 7 Oeste 28 Sudoeste 0 928.9 -2 14
2018-08-11 17:00:00 33.7 8 Oeste 31 Oeste 0 929.5 -1.7 14
2018-08-11 16:00:00 32.7 5 Sudoeste 27 Sudoeste 0 930.2 -1.6 16
2018-08-11 15:00:00 31.6 9 Sudoeste 27 Sudoeste 0 930.9 -1.4 20
2018-08-11 14:00:00 30.4 7 Sudoeste 23 Oeste 0 931.2 -1.1 29
2018-08-11 13:00:00 29.1 4 Norte 15 Noroeste 0 931.8 -0.5 35
2018-08-11 12:00:00 27.7 3 Oeste 10 Noroeste 0 932.3 -0.1 41
2018-08-11 11:00:00 25.3 4 Este 14 Este 0 932.3 0.2 46
2018-08-11 10:00:00 22.4 7 Este 20 Este 0 932.3 0.4 53
2018-08-11 09:00:00 20.3 7 Este 17 Este 0 932.4 0.5 58
2018-08-11 08:00:00 17.7 6 Este 17 Este 0 932.1 0.2 65
2018-08-11 07:00:00 17.3 7 Este 18 Este 0 931.9 -0.2 65
2018-08-11 06:00:00 17.8 8 Este 29 Sudeste 0 931.9 -0.5 62
2018-08-11 05:00:00 18.5 8 Este 26 Sudeste 0 931.9 -0.9 58
2018-08-11 04:00:00 19.1 10 Este 26 Sudeste 0 932.1 -0.7 55
2018-08-11 03:00:00 18.7 6 Este 18 Sudeste 0 932.4 -0.1 56
2018-08-11 02:00:00 16.6 4 Este 8 Este 0 932.8 0.6 62
2018-08-11 01:00:00 16.7 0 Calma 4 Sudeste 0 932.8 1.4 62
2018-08-11 00:00:00 19.6 0 Calma 17 Sudeste 0 932.5 1.8 45
2018-08-10 23:00:00 21.6 5 Este 12 Este 0 932.2 1.7 37
2018-08-10 22:00:00 23.6 4 Nordeste 14 Norte 0 931.4 0.8 29
2018-08-10 21:00:00 25.9 4 Noroeste 13 Norte 0 930.7 -0.1 24
2018-08-10 20:00:00 27.4 6 Noroeste 13 Oeste 0 930.5 -0.5 24
2018-08-10 19:00:00 28.3 7 Noroeste 18 Noroeste 0 930.6 -0.8 22
2018-08-10 18:00:00 29 5 Nordeste 17 Noroeste 0 930.8 -1 23
2018-08-10 17:00:00 29.7 4 Noroeste 18 Sudoeste 0 931 -1.1 24
2018-08-10 16:00:00 28.5 4 Oeste 20 Noroeste 0 931.4 -1.1 24
2018-08-10 15:00:00 26.4 5 Nordeste 18 Noroeste 0 931.8 -1 29
2018-08-10 14:00:00 25.2 6 Nordeste 19 Este 0 932.1 -0.9 33
2018-08-10 13:00:00 24.3 7 Este 23 Este 0 932.5 -0.8 34
2018-08-10 12:00:00 22.8 7 Este 23 Este 0 932.8 -0.4 36
2018-08-10 11:00:00 20.6 12 Este 38 Sudeste 0 933 -0.1 42
2018-08-10 10:00:00 17.4 16 Este 34 Este 0 933.3 0.6 49
2018-08-10 09:00:00 14.9 11 Este 22 Sudeste 0 933.2 0.8 60
2018-08-10 08:00:00 11.9 8 Este 14 Este 0 933.1 0.7 71
2018-08-10 07:00:00 10.8 5 Este 12 Este 0 932.7 0.4 75
2018-08-10 06:00:00 10.4 5 Este 10 Este 0 932.4 0 76
2018-08-10 05:00:00 9 0 Calma 4 Este 0 932.4 0 75
2018-08-10 04:00:00 9.9 0 Calma 6 Nordeste 0 932.3 0.3 71
2018-08-10 03:00:00 11.1 2 Nordeste 9 Este 0 932.4 0.6 70
2018-08-10 02:00:00 11.5 2 Oeste 8 Nordeste 0 932.4 1.2 69
2018-08-10 01:00:00 13 0 Calma 6 Nordeste 0 932 1.8 67
2018-08-10 00:00:00 15.5 3 Norte 15 Nordeste 0 931.8 2.3 58
2018-08-09 23:00:00 16.8 3 Este 11 Norte 0 931.2 2.1 52
2018-08-09 22:00:00 18.3 4 Norte 20 Noroeste 0 930.2 1.3 45
2018-08-09 21:00:00 20 10 Norte 27 Norte 0 929.5 0.8 38
2018-08-09 20:00:00 21.7 10 Norte 29 Norte 0 929.1 0.5 30
2018-08-09 19:00:00 22.4 13 Norte 34 Noroeste 0 928.9 0.3 30
2018-08-09 18:00:00 23.8 15 Norte 30 Noroeste 0 928.7 0 29
2018-08-09 17:00:00 24.7 11 Norte 26 Noroeste 0 928.6 0 26
2018-08-09 16:00:00 24.7 7 Noroeste 27 Noroeste 0 928.6 0 27
2018-08-09 15:00:00 24.2 9 Oeste 27 Oeste 0 928.7 0.3 30
2018-08-09 14:00:00 23.9 5 Oeste 27 Noroeste 0 928.6 0.6 33
2018-08-09 13:00:00 23.6 7 Oeste 30 Noroeste 0 928.6 1 37
2018-08-09 12:00:00 22 5 Noroeste 18 Noroeste 0 928.4 1.2 42
2018-08-09 11:00:00 21.8 5 Oeste 23 Oeste 0 928 1.5 41
2018-08-09 10:00:00 20.1 8 Oeste 24 Oeste 0 927.6 1.6 46
2018-08-09 09:00:00 18.9 4 Oeste 15 Oeste 0 927.2 1.9 53
2018-08-09 08:00:00 15.4 2 Sudoeste 19 Noroeste 0 926.5 1.7 67
2018-08-09 07:00:00 15.6 2 Noroeste 12 Noroeste 0 926 1.7 73
2018-08-09 06:00:00 17 3 Oeste 17 Sudoeste 0 925.3 1.5 65
2018-08-09 05:00:00 16.2 6 Sudoeste 12 Sudoeste 0 924.8 1.3 64
2018-08-09 04:00:00 15.6 3 Oeste 10 Oeste 0 924.3 1.4 68
2018-08-09 03:00:00 16.1 5 Sudoeste 12 Oeste 0 923.8 1.5 61
2018-08-09 02:00:00 14.7 2 Oeste 8 Sudoeste 0 923.5 1.6 67
2018-08-09 01:00:00 15.9 0 Calma 6 Sudoeste 0 922.9 1.6 59
2018-08-09 00:00:00 18 0 Calma 7 Sudoeste 0 922.3 1.5 56
2018-08-08 23:00:00 20.2 0 Calma -- -- 0 921.9 1.3 44
2018-08-08 22:00:00 23.6 0 Calma 6 Oeste 0 921.3 0.8 34
2018-08-08 21:00:00 27 3 Oeste 17 Noroeste 0 920.8 0.2 25
2018-08-08 20:00:00 29.2 4 Oeste 26 Oeste 0 920.6 -0.7 21
2018-08-08 19:00:00 30.8 7 Oeste 30 Oeste 0 920.5 -1.6 18
2018-08-08 18:00:00 32.8 7 Oeste 25 Oeste 0 920.6 -2.3 15
2018-08-08 17:00:00 33.2 7 Sudoeste 27 Oeste 0 921.3 -2.2 14
2018-08-08 16:00:00 31.4 6 Oeste 23 Oeste 0 922.1 -2 17
2018-08-08 15:00:00 30.4 9 Sudoeste 26 Sudoeste 0 922.9 -1.6 16
2018-08-08 14:00:00 28.9 5 Oeste 19 Oeste 0 923.5 -1.4 23
2018-08-08 13:00:00 27.1 6 Este 13 Este 0 924.1 -0.8 31
2018-08-08 12:00:00 25.7 2 Sudeste 10 Sudeste 0 924.5 -0.5 33
2018-08-08 11:00:00 22.8 3 Este 11 Este 0 924.9 0.2 45
2018-08-08 10:00:00 20.2 4 Este 12 Sudeste 0 924.9 0.5 59
2018-08-08 09:00:00 17.1 4 Este 7 Este 0 925 0.8 71
2018-08-08 08:00:00 12 0 Calma 4 Sudoeste 0 924.7 0.5 83
2018-08-08 07:00:00 10.7 0 Calma 3 Sudoeste 0 924.4 0 84
2018-08-08 06:00:00 11.3 2 Noroeste 6 Sudoeste 0 924.2 -0.4 82
2018-08-08 05:00:00 12 0 Calma 3 Este 0 924.2 -1 79
2018-08-08 04:00:00 12.8 0 Calma 4 Sudoeste 0 924.4 -1.1 79
2018-08-08 03:00:00 13.5 0 Calma 5 Sudoeste 0 924.6 -0.4 79
2018-08-08 02:00:00 14.7 0 Calma 6 Oeste 0 925.2 0.3 80
2018-08-08 01:00:00 16 2 Sudoeste 6 Sudoeste 0 925.5 1.8 75
2018-08-08 00:00:00 18.2 3 Sudoeste 9 Oeste 0 925 2.1 66
2018-08-07 23:00:00 20 3 Oeste 10 Norte 0 924.9 2.7 49
2018-08-07 22:00:00 22.9 3 Sudoeste 10 Oeste 0 923.7 1.2 33
2018-08-07 21:00:00 26.2 3 Oeste 30 Oeste 0 922.9 0.2 23
2018-08-07 20:00:00 28.2 9 Oeste 29 Oeste 0 922.2 -0.9 17
2018-08-07 19:00:00 29.2 6 Oeste 27 Oeste 0 922.5 -1.1 20
2018-08-07 18:00:00 31.1 5 Oeste 35 Noroeste 0 922.7 -1.3 18
2018-08-07 17:00:00 30.8 6 Oeste 26 Oeste 0 923.1 -1.2 21
2018-08-07 16:00:00 29.8 5 Oeste 23 Oeste 0 923.6 -0.9 24
2018-08-07 15:00:00 28.4 5 Oeste 23 Sudoeste 0 924 -0.6 25
2018-08-07 14:00:00 27.3 8 Oeste 24 Sudoeste 0 924.3 -0.5 26
2018-08-07 13:00:00 26.7 10 Sudoeste 24 Sudoeste 0 924.5 -0.5 25
2018-08-07 12:00:00 25.6 6 Sudoeste 22 Sudoeste 0 924.6 -0.3 31
2018-08-07 11:00:00 23.9 5 Oeste 21 Sudoeste 0 924.8 0.7 31
2018-08-07 10:00:00 22.1 6 Sudoeste 18 Sudoeste 0 925 1.5 36
2018-08-07 09:00:00 17.8 3 Sudoeste 9 Sudoeste 0 924.9 1.7 54
2018-08-07 08:00:00 14.7 0 Calma 8 Sudoeste 0 924.1 1 67
2018-08-07 07:00:00 15.9 0 Calma 4 Sudoeste 0 923.5 0.3 63
2018-08-07 06:00:00 18 0 Calma 10 Sudoeste 0 923.2 0 54
2018-08-07 05:00:00 19.4 3 Sudoeste 9 Este 0 923.1 -0.4 52
2018-08-07 04:00:00 21.5 4 Noroeste 11 Noroeste 0 923.2 -1.4 39
2018-08-07 03:00:00 25.3 9 Este 31 Sudeste 0 923.2 -1.4 26
2018-08-07 02:00:00 22.8 4 Noroeste 21 Sudeste 0 923.5 -1.5 37
2018-08-07 01:00:00 24.8 7 Sudeste 16 Este 0 924.6 0.4 31
2018-08-07 00:00:00 25 4 Nordeste 12 Este 0 924.6 1 33
2018-08-06 23:00:00 24.2 3 Nordeste 9 Oeste 0 925 1.3 43
2018-08-06 22:00:00 26.3 0 Calma 12 Oeste 0 924.2 0.1 37
2018-08-06 21:00:00 29.6 0 Calma 4 Oeste 0 923.6 -1.1 33
2018-08-06 20:00:00 34 0 Calma 10 Sudoeste 0 923.7 -1.7 22
2018-08-06 19:00:00 35.7 3 Sudoeste 15 Sudoeste 0 924.1 -1.9 12
2018-08-06 18:00:00 36.1 4 Noroeste 12 Norte 0 924.7 -1.7 15
2018-08-06 17:00:00 34.5 3 Sudoeste 13 Noroeste 0 925.4 -1.5 15
2018-08-06 16:00:00 35 4 Oeste 19 Noroeste 0 926 -1.3 15
2018-08-06 15:00:00 35.4 6 Sudoeste 23 Oeste 0 926.4 -1.3 14
2018-08-06 14:00:00 34.1 4 Oeste 16 Sudoeste 0 926.9 -1.1 19
2018-08-06 13:00:00 32.5 3 Oeste 14 Oeste 0 927.3 -0.9 23
2018-08-06 12:00:00 29.4 3 Norte 9 Nordeste 0 927.7 -0.7 29
2018-08-06 11:00:00 25.9 5 Este 11 Este 0 928 -0.2 36
2018-08-06 10:00:00 21.9 5 Este 12 Sudeste 0 928.2 0.2 45
2018-08-06 09:00:00 18.3 3 Nordeste 8 Este 0 928.4 0.5 63
2018-08-06 08:00:00 13.4 2 Nordeste 8 Sudeste 0 928.2 0.4 79
2018-08-06 07:00:00 12.4 0 Calma 4 Oeste 0 928 0 81
2018-08-06 06:00:00 13.5 0 Calma -- -- 0 927.9 -0.4 75
2018-08-06 05:00:00 14.2 0 Calma 3 Este 0 927.8 -0.9 71
2018-08-06 04:00:00 14.9 0 Calma 4 Sudeste 0 928 -0.5 71
2018-08-06 03:00:00 15.8 0 Calma 6 Este 0 928.3 -0.2 69
2018-08-06 02:00:00 17 3 Este 5 Este 0 928.7 0.4 71
2018-08-06 01:00:00 19 0 Calma 5 Sudoeste 0 928.5 0.9 61
2018-08-06 00:00:00 21.1 0 Calma 10 Este 0 928.5 1.4 50
2018-08-05 23:00:00 24 0 Calma 8 Nordeste 0 928.3 1.3 39
2018-08-05 22:00:00 27.6 3 Nordeste 12 Noroeste 0 927.6 0.6 30
2018-08-05 21:00:00 30.1 5 Norte 18 Noroeste 0 927.1 -0.3 22
2018-08-05 20:00:00 32.4 9 Noroeste 23 Noroeste 0 927 -0.9 13
2018-08-05 19:00:00 34.1 7 Noroeste 20 Oeste 0 927 -1.3 12
2018-08-05 18:00:00 36.4 7 Oeste 21 Sudoeste 0 927.4 -1.5 11
2018-08-05 17:00:00 36.5 5 Oeste 18 Sudoeste 0 927.9 -1.6 10
2018-08-05 16:00:00 34.1 5 Oeste 17 Oeste 0 928.3 -1.7 16
2018-08-05 15:00:00 32.7 6 Sudoeste 19 Oeste 0 928.9 -1.4 20
2018-08-05 14:00:00 31.4 5 Sudoeste 18 Sudoeste 0 929.5 -0.9 22
2018-08-05 13:00:00 30.1 3 Norte 13 Norte 0 930 -0.5 23
2018-08-05 12:00:00 27.6 4 Nordeste 11 Este 0 930.3 0 30
2018-08-05 11:00:00 25.8 3 Norte 8 Este 0 930.4 0.3 37
2018-08-05 10:00:00 22 4 Nordeste 11 Este 0 930.5 0.6 49
2018-08-05 09:00:00 19 3 Este 7 Sudeste 0 930.3 0.6 59
2018-08-05 08:00:00 12.9 0 Calma 5 Sudoeste 0 930.1 0.3 75
2018-08-05 07:00:00 12 0 Calma 4 Este 0 929.9 0 77
2018-08-05 06:00:00 12.6 0 Calma 3 Este 0 929.7 -0.3 75
2018-08-05 05:00:00 13.5 2 Sur 4 Este 0 929.8 -0.5 72
2018-08-05 04:00:00 14.5 0 Calma 3 Este 0 929.9 -0.5 72
2018-08-05 03:00:00 15.4 0 Calma 4 Este 0 930 -0.4 69
2018-08-05 02:00:00 16.6 2 Sudoeste 5 Sudoeste 0 930.3 -0.1 63
2018-08-05 01:00:00 18.5 2 Sudoeste 6 Sudoeste 0 930.4 0.3 58
2018-08-05 00:00:00 20.9 3 Sudoeste 9 Norte 0 930.4 0.6 51
2018-08-04 23:00:00 23.9 5 Norte 13 Norte 0 930.4 0.8 45
2018-08-04 22:00:00 26.5 3 Este 25 Norte 0 930.1 0.6 35
2018-08-04 21:00:00 28.5 7 Norte 29 Norte 0 929.8 0.2 30
2018-08-04 20:00:00 30.4 12 Norte 36 Norte 0 929.6 -0.1 23
2018-08-04 19:00:00 32.1 13 Norte 33 Noroeste 0 929.5 -0.5 16
2018-08-04 18:00:00 33.8 10 Norte 32 Noroeste 0 929.6 -0.7 14
2018-08-04 17:00:00 34.4 12 Norte 28 Noroeste 0 929.7 -1.1 14
2018-08-04 16:00:00 34.4 12 Noroeste 29 Noroeste 0 930 -1.3 14
2018-08-04 15:00:00 33.9 5 Sudoeste 23 Sudoeste 0 930.3 -1.5 16
2018-08-04 14:00:00 32.8 4 Sudoeste 16 Oeste 0 930.8 -1.2 19
2018-08-04 13:00:00 32 5 Sudoeste 12 Oeste 0 931.3 -0.6 21
2018-08-04 12:00:00 29.7 3 Sudoeste 11 Oeste 0 931.8 0.1 25
2018-08-04 11:00:00 26.2 2 Norte 4 Noroeste 0 932 0.4 34
2018-08-04 10:00:00 22.3 3 Nordeste 8 Sudeste 0 931.9 0.8 46
2018-08-04 09:00:00 18.7 2 Este 5 Este 0 931.7 0.9 64
2018-08-04 08:00:00 14.2 2 Sur 6 Oeste 0 931.6 0.8 76
2018-08-04 07:00:00 14.1 0 Calma 8 Este 0 931.1 0.2 75
2018-08-04 06:00:00 14.4 3 Sudeste 5 Nordeste 0 930.8 -0.2 72
2018-08-04 05:00:00 15.1 2 Este 6 Sudeste 0 930.8 -0.4 75
2018-08-04 04:00:00 16 3 Este 6 Este 0 930.9 -0.4 69
2018-08-04 03:00:00 17 2 Sur 6 Sudoeste 0 931 -0.2 68
2018-08-04 02:00:00 18.4 0 Calma 6 Sudeste 0 931.2 0.2 58
2018-08-04 01:00:00 19.5 2 Sudoeste 6 Norte 0 931.3 1.1 61
2018-08-04 00:00:00 22.6 3 Este 8 Sudeste 0 931.2 1.6 46
2018-08-03 23:00:00 24.8 2 Sudoeste 6 Nordeste 0 931 1.7 42
2018-08-03 22:00:00 28.8 3 Nordeste 18 Nordeste 0 930.2 1.1 29
2018-08-03 21:00:00 31.2 4 Nordeste 28 Nordeste 0 929.6 0.4 21
2018-08-03 20:00:00 32.9 7 Nordeste 27 Norte 0 929.3 0 15
2018-08-03 19:00:00 34.3 10 Norte 37 Norte 0 929.1 -0.3 14
2018-08-03 18:00:00 35.1 11 Norte 30 Noroeste 0 929.2 -0.4 15
2018-08-03 17:00:00 35.9 9 Norte 28 Noroeste 0 929.3 -0.6 15
2018-08-03 16:00:00 35.6 12 Norte 29 Noroeste 0 929.4 -0.6 14
2018-08-03 15:00:00 35.2 9 Norte 30 Noroeste 0 929.6 -0.8 19
2018-08-03 14:00:00 34.7 12 Norte 28 Norte 0 929.9 -0.8 15
2018-08-03 13:00:00 34.9 8 Noroeste 18 Noroeste 0 930 -0.7 14
2018-08-03 12:00:00 31.6 6 Sudoeste 15 Sudoeste 0 930.4 -0.3 29
2018-08-03 11:00:00 28.1 4 Sudoeste 9 Sudoeste 0 930.7 0.2 39
2018-08-03 10:00:00 24.2 2 Norte 4 Nordeste 0 930.7 0.5 48
2018-08-03 09:00:00 20.3 0 Calma 4 Sudeste 0 930.7 0.9 63
2018-08-03 08:00:00 15.5 0 Calma 2 Sudoeste 0 930.5 0.6 79
2018-08-03 07:00:00 14.8 0 Calma -- -- 0 930.2 0.5 82
2018-08-03 06:00:00 15.8 0 Calma 3 Sudoeste 0 929.8 -0.1 71
2018-08-03 05:00:00 16.4 0 Calma 5 Sudeste 0 929.9 -0.1 73
2018-08-03 04:00:00 16.9 0 Calma 3 Este 0 929.7 -0.4 74
2018-08-03 03:00:00 17.6 0 Calma -- -- 0 929.9 -0.1 69
2018-08-03 02:00:00 18.4 0 Calma 4 Sudeste 0 930 0.3 66
2018-08-03 01:00:00 20 0 Calma 3 Este 0 930.1 1.2 62
2018-08-03 00:00:00 22.8 0 Calma 3 Sur 0 930 1.6 49
2018-08-02 23:00:00 25.4 0 Calma 6 Este 0 929.7 1.7 46
2018-08-02 22:00:00 29.7 4 Este 12 Nordeste 0 928.9 1 28
2018-08-02 21:00:00 32.1 4 Nordeste 18 Norte 0 928.4 0.4 22
2018-08-02 20:00:00 34 8 Norte 19 Noroeste 0 928 0 16
2018-08-02 19:00:00 35.4 6 Noroeste 21 Norte 0 927.9 -0.5 15
2018-08-02 18:00:00 36.3 5 Nordeste 28 Norte 0 928 -0.8 14
2018-08-02 17:00:00 38.3 7 Oeste 22 Noroeste 0 928 -1.2 12
2018-08-02 16:00:00 37 8 Oeste 19 Sudoeste 0 928.4 -1.1 13
2018-08-02 15:00:00 35.8 6 Oeste 26 Sudoeste 0 928.8 -0.9 13
2018-08-02 14:00:00 34.9 5 Sudoeste 14 Sudoeste 0 929.2 -0.5 16
2018-08-02 13:00:00 33.9 2 Sudoeste 10 Norte 0 929.5 -0.2 22
2018-08-02 12:00:00 31.8 2 Oeste 15 Este 0 929.7 0.1 26
2018-08-02 11:00:00 28.5 10 Este 21 Sudeste 0 929.7 0.3 33
2018-08-02 10:00:00 25.5 11 Este 26 Este 0 929.7 0.7 44
2018-08-02 09:00:00 22.5 9 Este 19 Este 0 929.6 0.8 55
2018-08-02 08:00:00 19 4 Este 12 Este 0 929.4 0.8 69
2018-08-02 07:00:00 18.6 7 Este 15 Este 0 929 0.4 70
2018-08-02 06:00:00 15.1 2 Este 6 Sudeste 0 928.8 0.1 75
2018-08-02 05:00:00 15.7 0 Calma 4 Sudoeste 0 928.6 -0.3 73
2018-08-02 04:00:00 16.5 2 Sudoeste 4 Sudoeste 0 928.6 -0.4 71
2018-08-02 03:00:00 17.3 0 Calma 5 Sudeste 0 928.7 0.1 69
2018-08-02 02:00:00 18.4 0 Calma 2 Este 0 928.9 0.9 69
2018-08-02 01:00:00 20.2 0 Calma 5 Sudoeste 0 929 1.6 62
2018-08-02 00:00:00 23.5 0 Calma 12 Sudeste 0 928.6 1.8 47
2018-08-01 23:00:00 26.3 3 Este 14 Nordeste 0 928 1.4 39
2018-08-01 22:00:00 27.8 5 Nordeste 20 Noroeste 0 927.4 0.7 35
2018-08-01 21:00:00 30.6 4 Noroeste 10 Norte 0 926.8 0 22
2018-08-01 20:00:00 32.2 5 Norte 17 Norte 0 926.6 -0.4 20
2018-08-01 19:00:00 33.7 6 Noroeste 19 Oeste 0 926.7 -0.7 16
2018-08-01 18:00:00 35 5 Noroeste 21 Oeste 0 926.8 -1 16
2018-08-01 17:00:00 35.1 6 Noroeste 21 Oeste 0 927 -1.2 18
2018-08-01 16:00:00 33.6 5 Noroeste 23 Oeste 0 927.4 -1.3 22
2018-08-01 15:00:00 32.8 5 Oeste 20 Noroeste 0 927.8 -1.1 23
2018-08-01 14:00:00 31.2 4 Noroeste 13 Oeste 0 928.2 -0.7 27
2018-08-01 13:00:00 29.4 4 Nordeste 15 Este 0 928.7 -0.2 33
2018-08-01 12:00:00 27 5 Nordeste 15 Sudeste 0 928.9 0.3 40
2018-08-01 11:00:00 25.1 4 Este 21 Este 0 928.9 0.6 49
2018-08-01 10:00:00 22.9 8 Este 28 Este 0 928.9 0.9 56
2018-08-01 09:00:00 19.7 7 Este 14 Este 0 928.6 0.5 69
2018-08-01 08:00:00 15.4 0 Calma 4 Este 0 928.3 0.4 82
2018-08-01 07:00:00 13.8 0 Calma 4 Sudoeste 0 928 0.2 85
2018-08-01 06:00:00 14.4 0 Calma 5 Sudoeste 0 928.1 0.3 82
2018-08-01 05:00:00 15.1 0 Calma 6 Sudoeste 0 927.9 0.1 81
2018-08-01 04:00:00 15.8 0 Calma 5 Sudoeste 0 927.8 0.1 79
2018-08-01 03:00:00 16.5 4 Sudoeste 6 Sudoeste 0 927.8 0.3 77
2018-08-01 02:00:00 17.5 3 Sudoeste 6 Sudoeste 0 927.8 0.5 74
2018-08-01 01:00:00 19 0 Calma 7 Sudoeste 0 927.7 1.5 71
2018-08-01 00:00:00 21.5 2 Sudoeste 9 Noroeste 0 927.5 1.7 60
2018-07-31 23:00:00 23.8 3 Norte 19 Norte 0 927.3 1.6 51
2018-07-31 22:00:00 26.1 5 Norte 15 Norte 0 926.2 0.3 43
2018-07-31 21:00:00 28.9 3 Noroeste 15 Noroeste 0 925.8 -0.3 29
2018-07-31 20:00:00 30.4 4 Noroeste 18 Noroeste 0 925.7 -0.7 25
2018-07-31 19:00:00 31.5 4 Noroeste 19 Noroeste 0 925.9 -0.8 21
2018-07-31 18:00:00 34.2 5 Sudoeste 21 Oeste 0 926.1 -1.3 19
2018-07-31 17:00:00 33.5 7 Oeste 22 Oeste 0 926.4 -1.6 20
2018-07-31 16:00:00 30.9 4 Norte 15 Nordeste 0 926.7 -1.8 28
2018-07-31 15:00:00 29.1 6 Nordeste 17 Sudoeste 0 927.4 -1.5 33
2018-07-31 14:00:00 29.1 4 Norte 16 Sudoeste 0 928 -1 33
2018-07-31 13:00:00 28 5 Noroeste 13 Norte 0 928.5 -0.8 34
2018-07-31 12:00:00 26.7 3 Norte 10 Noroeste 0 928.9 -0.2 41
2018-07-31 11:00:00 25.2 2 Sudoeste 13 Noroeste 0 929 0 45
2018-07-31 10:00:00 22.7 5 Noroeste 13 Noroeste 0 929.3 0.3 55
2018-07-31 09:00:00 19.3 3 Nordeste 6 Este 0 929.1 0.4 57
2018-07-31 08:00:00 15 0 Calma 4 Nordeste 0 929 0.5 76
2018-07-31 07:00:00 12.6 2 Este 5 Sudoeste 0 929 0.7 83
2018-07-31 06:00:00 13.1 0 Calma 4 Nordeste 0 928.7 0.2 79
2018-07-31 05:00:00 13.3 0 Calma 4 Sudoeste 0 928.5 -0.1 77
2018-07-31 04:00:00 13.8 0 Calma 3 Sudoeste 0 928.3 -0.3 74
2018-07-31 03:00:00 14.4 0 Calma 3 Este 0 928.5 0.2 72
2018-07-31 02:00:00 15.1 0 Calma 5 Sudoeste 0 928.6 0.9 75
2018-07-31 01:00:00 16.5 0 Calma -- -- 0 928.6 1.6 65
2018-07-31 00:00:00 18.4 0 Calma 5 Sudoeste 0 928.3 1.9 55
2018-07-30 23:00:00 20.8 0 Calma 5 Sudoeste 0 927.7 1.6 41
2018-07-30 22:00:00 24.1 0 Calma 6 Oeste 0 927 1.1 36
2018-07-30 21:00:00 27.9 2 Oeste 19 Noroeste 0 926.4 0.4 24
2018-07-30 20:00:00 29.8 5 Oeste 29 Oeste 0 926.1 -0.1 20
2018-07-30 19:00:00 31.9 6 Oeste 26 Sudoeste 0 925.9 -0.9 17
2018-07-30 18:00:00 33.2 9 Oeste 26 Sudoeste 0 926 -1.2 15
2018-07-30 17:00:00 33.4 8 Oeste 30 Oeste 0 926.2 -1.6 17
2018-07-30 16:00:00 31.5 6 Oeste 28 Noroeste 0 926.8 -1.4 18
2018-07-30 15:00:00 29.4 5 Oeste 18 Sudoeste 0 927.2 -1.3 24
2018-07-30 14:00:00 28 9 Noroeste 23 Noroeste 0 927.8 -1.1 29
2018-07-30 13:00:00 27.5 6 Oeste 18 Noroeste 0 928.2 -0.8 30
2018-07-30 12:00:00 26.9 3 Oeste 13 Sudoeste 0 928.5 -0.3 34
2018-07-30 11:00:00 24.4 3 Oeste 16 Oeste 0 928.9 0.4 43
2018-07-30 10:00:00 21.9 3 Oeste 9 Oeste 0 929 0.8 47
2018-07-30 09:00:00 17.6 3 Este 6 Este 0 928.8 0.3 49
2018-07-30 08:00:00 13.1 2 Este 8 Sudeste 0 928.5 -0.1 66
2018-07-30 07:00:00 10.3 3 Este 7 Este 0 928.2 -0.2 78
2018-07-30 06:00:00 10.7 0 Calma 3 Este 0 928.5 0.2 71
2018-07-30 05:00:00 11.3 0 Calma 3 Este 0 928.6 0.2 72
2018-07-30 04:00:00 11.8 0 Calma 4 Este 0 928.4 0.1 64
2018-07-30 03:00:00 12.6 0 Calma 6 Sudeste 0 928.3 0.4 64
2018-07-30 02:00:00 13.5 0 Calma 3 Nordeste 0 928.4 1 64
2018-07-30 01:00:00 14.9 0 Calma 8 Sudoeste 0 928.3 1.8 48
2018-07-30 00:00:00 16.6 0 Calma 4 Sudeste 0 927.9 1.6 51
2018-07-29 23:00:00 19 0 Calma 3 Noroeste 0 927.4 1.4 45
2018-07-29 22:00:00 22.8 2 Sudoeste 6 Oeste 0 926.5 0.6 35
2018-07-29 21:00:00 26.3 3 Oeste 17 Noroeste 0 926.3 0.4 20
2018-07-29 20:00:00 28.2 4 Oeste 20 Noroeste 0 926 0.1 15
2018-07-29 19:00:00 29.5 7 Noroeste 26 Noroeste 0 925.9 -0.3 15
2018-07-29 18:00:00 32.1 7 Oeste 28 Oeste 0 925.9 -0.5 15
2018-07-29 17:00:00 32.2 11 Sudoeste 30 Oeste 0 925.9 -0.5 14
2018-07-29 16:00:00 30.8 8 Oeste 33 Sudoeste 0 926.2 -0.3 17
2018-07-29 15:00:00 29.3 6 Oeste 30 Oeste 0 926.4 -0.1 23
2018-07-29 14:00:00 28.4 6 Sudoeste 23 Oeste 0 926.4 -0.3 30
2018-07-29 13:00:00 28 6 Oeste 22 Sudoeste 0 926.5 -0.4 32
2018-07-29 12:00:00 26.1 5 Oeste 20 Oeste 0 926.5 0 38
2018-07-29 11:00:00 25.3 5 Sudoeste 13 Oeste 0 926.7 0.5 38
2018-07-29 10:00:00 23.3 4 Oeste 18 Oeste 0 926.9 1.1 41
2018-07-29 09:00:00 19.9 2 Oeste 9 Sudoeste 0 926.5 1 50
2018-07-29 08:00:00 14.3 0 Calma 3 Este 0 926.2 0.9 64
2018-07-29 07:00:00 11.3 0 Calma 6 Este 0 925.8 0.4 72
2018-07-29 06:00:00 11.9 0 Calma 6 Este 0 925.5 0 71
2018-07-29 05:00:00 12.9 3 Este 8 Este 0 925.3 -0.2 69
2018-07-29 04:00:00 13 5 Este 7 Este 0 925.4 -0.1 63
2018-07-29 03:00:00 13.6 0 Calma 4 Este 0 925.5 0.3 66
2018-07-29 02:00:00 14.6 0 Calma 8 Este 0 925.5 0.4 60
2018-07-29 01:00:00 15.7 0 Calma 3 Sudoeste 0 925.5 0.9 52
2018-07-29 00:00:00 17.7 0 Calma 3 Este 0 925.2 0.8 59
2018-07-28 23:00:00 20 0 Calma 4 Sudoeste 0 925.1 1.2 46
2018-07-28 22:00:00 23.3 0 Calma 5 Oeste 0 924.6 0.7 41
2018-07-28 21:00:00 27.1 0 Calma 15 Noroeste 0 924.4 0.2 25
2018-07-28 20:00:00 28.7 4 Oeste 19 Oeste 0 923.9 -0.7 22
2018-07-28 19:00:00 30.4 8 Oeste 26 Sudoeste 0 923.9 -1 19
2018-07-28 18:00:00 32.1 6 Oeste 21 Oeste 0 924.2 -1.2 18
2018-07-28 17:00:00 30.5 6 Noroeste 28 Noroeste 0 924.6 -1.2 23
2018-07-28 16:00:00 30.1 4 Oeste 23 Sudoeste 0 924.9 -1.1 25
2018-07-28 15:00:00 27.9 5 Noroeste 18 Noroeste 0 925.4 -0.8 27
2018-07-28 14:00:00 26.7 7 Noroeste 20 Sudoeste 0 925.8 -0.4 34
2018-07-28 13:00:00 26 5 Noroeste 14 Sudoeste 0 926 -0.1 35
2018-07-28 12:00:00 25.1 5 Sudoeste 15 Oeste 0 926.2 0.2 33
2018-07-28 11:00:00 23.4 4 Oeste 13 Noroeste 0 926.2 0.8 39
2018-07-28 10:00:00 21.4 3 Oeste 11 Oeste 0 926.1 0.9 50
2018-07-28 09:00:00 18.6 3 Norte 6 Norte 0 926 1.1 56
2018-07-28 08:00:00 14.1 2 Sudoeste 10 Oeste 0 925.4 0.5 69
2018-07-28 07:00:00 12.3 3 Oeste 9 Oeste 0 925.2 0.2 75
2018-07-28 06:00:00 12.5 3 Sudoeste 5 Sudoeste 0 924.9 -0.1 73
2018-07-28 05:00:00 12.8 0 Calma 4 Nordeste 0 924.9 -0.2 74
2018-07-28 04:00:00 13.3 0 Calma 6 Sudoeste 0 925 0 71
2018-07-28 03:00:00 14 0 Calma 4 Sudoeste 0 925 0.4 60
2018-07-28 02:00:00 15 2 Sudoeste 7 Sudoeste 0 925.1 1.1 57
2018-07-28 01:00:00 16.6 0 Calma 5 Oeste 0 925 1.8 54
2018-07-28 00:00:00 19 0 Calma 5 Sudoeste 0 924.6 2.1 52
2018-07-27 23:00:00 21.6 2 Sudoeste 6 Sudoeste 0 924 1.8 43
2018-07-27 22:00:00 24.9 3 Sudoeste 10 Oeste 0 923.2 1.3 33
2018-07-27 21:00:00 27.8 3 Oeste 18 Noroeste 0 922.5 0.3 27
2018-07-27 20:00:00 29.3 4 Oeste 23 Noroeste 0 922.2 -0.4 24
2018-07-27 19:00:00 31.6 7 Oeste 31 Oeste 0 921.9 -1.1 20
2018-07-27 18:00:00 32.8 10 Sudoeste 33 Sudoeste 0 922.2 -1.2 17
2018-07-27 17:00:00 31.5 5 Oeste 37 Sudoeste 0 922.6 -1.2 18
2018-07-27 16:00:00 32 13 Sudoeste 42 Oeste 0 923 -1.1 15
2018-07-27 15:00:00 31.1 8 Sudoeste 30 Sudoeste 0 923.4 -1.2 17
2018-07-27 14:00:00 30.2 6 Oeste 27 Sudoeste 0 923.8 -0.8 21
2018-07-27 13:00:00 28.8 8 Oeste 17 Sudoeste 0 924.1 -0.7 31
2018-07-27 12:00:00 27.7 5 Sudoeste 14 Oeste 0 924.6 -0.3 31
2018-07-27 11:00:00 24.3 3 Nordeste 8 Noroeste 0 924.6 0.1 40
2018-07-27 10:00:00 22.2 3 Nordeste 8 Este 0 924.8 0.3 54
2018-07-27 09:00:00 18.4 4 Nordeste 10 Sudeste 0 924.9 0.5 75
2018-07-27 08:00:00 15.4 3 Este 7 Sudeste 0 924.5 0 83
2018-07-27 07:00:00 14.1 0 Calma 3 Este 0 924.5 -0.3 85
2018-07-27 06:00:00 14.9 0 Calma 4 Oeste 0 924.4 -0.5 84
2018-07-27 05:00:00 15.6 2 Oeste 5 Oeste 0 924.5 -0.5 83
2018-07-27 04:00:00 16.4 0 Calma 4 Sudoeste 0 924.8 -0.4 81
2018-07-27 03:00:00 17.5 2 Sudoeste 7 Sudoeste 0 924.9 0.3 80
2018-07-27 02:00:00 18.3 2 Sudoeste 10 Oeste 0 925 0.7 80
2018-07-27 01:00:00 18.8 3 Oeste 9 Oeste 0 925.2 1.7 77
2018-07-27 00:00:00 19.9 3 Oeste 10 Oeste 0 924.6 1.7 57
2018-07-26 23:00:00 21.6 6 Noroeste 17 Norte 0 924.3 1.8 45
2018-07-26 22:00:00 25.4 5 Sudoeste 8 Oeste 0 923.5 1.3 34
2018-07-26 21:00:00 29.2 2 Oeste 16 Noroeste 0 922.9 0.5 23
2018-07-26 20:00:00 31.1 4 Oeste 23 Oeste 0 922.5 -0.3 20
2018-07-26 19:00:00 33 6 Oeste 22 Oeste 0 922.2 -1.1 15
2018-07-26 18:00:00 34.6 6 Oeste 23 Oeste 0 922.4 -1.3 14
2018-07-26 17:00:00 34.5 8 Oeste 26 Oeste 0 922.8 -1.3 15
2018-07-26 16:00:00 33.5 7 Sudoeste 26 Sudoeste 0 923.3 -1.4 17
2018-07-26 15:00:00 32.4 6 Sudoeste 32 Sudoeste 0 923.7 -1.5 17
2018-07-26 14:00:00 31.2 9 Sudoeste 26 Oeste 0 924.1 -1.3 18
2018-07-26 13:00:00 29.8 4 Sudoeste 13 Sudoeste 0 924.7 -0.6 30
2018-07-26 12:00:00 26.9 3 Nordeste 10 Este 0 925.2 0 37
2018-07-26 11:00:00 24.9 3 Nordeste 9 Este 0 925.4 0.3 42
2018-07-26 10:00:00 22.6 3 Nordeste 7 Sudeste 0 925.3 0.6 41
2018-07-26 09:00:00 19 3 Este 5 Este 0 925.2 0.7 52
2018-07-26 08:00:00 15.1 0 Calma 12 Este 0 925.1 0.4 73
2018-07-26 07:00:00 13 8 Este 13 Este 0 924.7 0.1 67
2018-07-26 06:00:00 13.2 4 Este 7 Este 0 924.5 0 69
2018-07-26 05:00:00 13.8 3 Este 6 Este 0 924.7 0.1 68
2018-07-26 04:00:00 13.7 0 Calma 6 Nordeste 0 924.6 0.2 71
2018-07-26 03:00:00 14.2 0 Calma -- -- 0 924.5 0.1 76
2018-07-26 02:00:00 15 0 Calma 4 Sudoeste 0 924.6 0.3 68
2018-07-26 01:00:00 16.4 0 Calma 7 Sudoeste 0 924.4 0.8 66
2018-07-26 00:00:00 18.9 0 Calma 4 Norte 0 924.4 1.3 52
2018-07-25 23:00:00 21.5 0 Calma 8 Sudoeste 0 924.3 1.5 48
2018-07-25 22:00:00 25.2 0 Calma 13 Sudoeste 0 923.6 0.7 38
2018-07-25 21:00:00 30 2 Oeste 13 Oeste 0 923.1 -0.1 22
2018-07-25 20:00:00 32.5 4 Sudoeste 12 Oeste 0 922.8 -0.9 15
2018-07-25 19:00:00 34.2 4 Sudoeste 21 Sudoeste 0 922.9 -1.3 12
2018-07-25 18:00:00 35.3 8 Sudoeste 28 Oeste 0 923.2 -1.4 11
2018-07-25 17:00:00 34.5 6 Noroeste 23 Sudoeste 0 923.7 -1.3 12
2018-07-25 16:00:00 33.4 5 Sudoeste 21 Oeste 0 924.2 -1.3 12
2018-07-25 15:00:00 31.9 3 Oeste 19 Sudoeste 0 924.6 -1.4 19
2018-07-25 14:00:00 31.2 5 Sudoeste 15 Oeste 0 925 -1.3 22
2018-07-25 13:00:00 29.9 5 Oeste 13 Noroeste 0 925.5 -1.1 30
2018-07-25 12:00:00 27.4 5 Sudeste 14 Sudeste 0 926 -0.6 37
2018-07-25 11:00:00 25.2 7 Este 18 Este 0 926.3 -0.1 47
2018-07-25 10:00:00 23.7 4 Este 13 Sudeste 0 926.6 0.3 52
2018-07-25 09:00:00 19.1 4 Este 11 Sudeste 0 926.6 0.6 55
2018-07-25 08:00:00 15 3 Este 8 Este 0 926.4 0.7 77
2018-07-25 07:00:00 12.5 3 Este 6 Este 0 926.3 0.4 80
2018-07-25 06:00:00 13.5 0 Calma 13 Sudeste 0 926 0.5 77
2018-07-25 05:00:00 13.6 2 Sudoeste 7 Sudoeste 0 925.7 0.2 82
2018-07-25 04:00:00 14.2 0 Calma 11 Sudoeste 0 925.9 0.3 80
2018-07-25 03:00:00 15 0 Calma 6 Sudoeste 0 925.5 0.2 79
2018-07-25 02:00:00 15.5 4 Oeste 21 Sudoeste 0 925.5 0.5 75
2018-07-25 01:00:00 16.5 4 Sudoeste 9 Este 0 925.6 1.4 63
2018-07-25 00:00:00 18.7 4 Sudoeste 7 Sudoeste 0 925.3 1.5 49
2018-07-24 23:00:00 20.5 0 Calma 6 Noroeste 0 925 1.3 53
2018-07-24 22:00:00 24.1 0 Calma 4 Noroeste 0 924.2 0.4 45
2018-07-24 21:00:00 28.2 0 Calma 8 Noroeste 0 923.8 -0.2 28
2018-07-24 20:00:00 29.8 3 Noroeste 15 Noroeste 0 923.7 -0.5 20
2018-07-24 19:00:00 31.3 6 Norte 16 Noroeste 0 923.8 -0.9 18
2018-07-24 18:00:00 32.5 5 Oeste 19 Oeste 0 924 -1 18
2018-07-24 17:00:00 33.8 4 Oeste 21 Oeste 0 924.2 -1.2 14
2018-07-24 16:00:00 31 5 Noroeste 21 Sudoeste 0 924.7 -1.1 19
2018-07-24 15:00:00 29.8 5 Sudoeste 19 Sudoeste 0 925 -1 26
2018-07-24 14:00:00 30 4 Oeste 18 Sudoeste 0 925.4 -0.5 24
2018-07-24 13:00:00 29.7 6 Sudoeste 22 Oeste 0 925.8 -0.2 29
2018-07-24 12:00:00 28.4 6 Oeste 23 Sudoeste 0 926 0 34
2018-07-24 11:00:00 27.1 7 Sudoeste 19 Sudoeste 0 925.9 0.4 36
2018-07-24 10:00:00 25.3 6 Sudoeste 18 Sudoeste 0 926 0.7 43
2018-07-24 09:00:00 23 5 Sudoeste 13 Sudoeste 0 926 1.2 51
2018-07-24 08:00:00 18.4 0 Calma 17 Sudoeste 0 925.5 0.9 65
2018-07-24 07:00:00 17.3 5 Sudoeste 20 Sudoeste 0 925.3 0.8 63
2018-07-24 06:00:00 17.9 4 Oeste 18 Oeste 0 924.8 0.2 52
2018-07-24 05:00:00 15.4 3 Oeste 11 Oeste 0 924.6 -0.3 68
2018-07-24 04:00:00 17 2 Oeste 14 Sudoeste 0 924.5 -0.3 60
2018-07-24 03:00:00 16.7 5 Oeste 13 Oeste 0 924.6 -0.1 65
2018-07-24 02:00:00 17.2 4 Sudoeste 11 Sudoeste 0 924.9 0.2 59
2018-07-24 01:00:00 19 0 Calma 6 Este 0 924.8 0.5 60
2018-07-24 00:00:00 20.9 4 Noroeste 10 Noroeste 0 924.7 0.6 49
2018-07-23 23:00:00 22.2 0 Calma 8 Sudoeste 0 924.7 0.9 44
2018-07-23 22:00:00 24.4 0 Calma 4 Sudoeste 0 924.3 0.3 41
2018-07-23 21:00:00 28.8 3 Oeste 10 Noroeste 0 924.1 -0.3 27
2018-07-23 20:00:00 30.3 6 Noroeste 15 Noroeste 0 923.8 -0.9 20
2018-07-23 19:00:00 32.4 5 Oeste 20 Noroeste 0 924 -1.3 18
2018-07-23 18:00:00 33.9 5 Oeste 21 Noroeste 0 924.4 -1.3 15
2018-07-23 17:00:00 34.4 6 Oeste 27 Noroeste 0 924.7 -1.3 15
2018-07-23 16:00:00 33 6 Sudoeste 33 Oeste 0 925.3 -1.4 15
2018-07-23 15:00:00 31.8 8 Oeste 33 Sudoeste 0 925.7 -1.4 19
2018-07-23 14:00:00 31 4 Oeste 19 Oeste 0 926 -1.4 23
2018-07-23 13:00:00 30 4 Oeste 13 Oeste 0 926.7 -0.8 29
2018-07-23 12:00:00 27.2 3 Norte 13 Sudeste 0 927.1 -0.3 37
2018-07-23 11:00:00 23.9 5 Este 22 Este 0 927.4 0.2 44
2018-07-23 10:00:00 20.9 9 Este 27 Este 0 927.5 0.3 56
2018-07-23 09:00:00 18.5 12 Este 26 Este 0 927.4 0.3 63
2018-07-23 08:00:00 15.8 9 Este 18 Este 0 927.2 -0.2 74
2018-07-23 07:00:00 14.6 8 Este 18 Este 0 927.2 -0.3 78
2018-07-23 06:00:00 14.9 8 Este 17 Este 0 927.1 -0.6 76
2018-07-23 05:00:00 15.6 8 Este 16 Este 0 927.4 -0.5 74
2018-07-23 04:00:00 16.1 8 Este 15 Este 0 927.5 -0.5 72
2018-07-23 03:00:00 15.3 4 Nordeste 10 Este 0 927.7 -0.1 76
2018-07-23 02:00:00 14.1 3 Este 5 Sudeste 0 927.9 0.6 72
2018-07-23 01:00:00 15.8 3 Sudoeste 5 Norte 0 928 1.6 66
2018-07-23 00:00:00 17.5 2 Nordeste 5 Sudoeste 0 927.8 2 63
2018-07-22 23:00:00 20.2 2 Este 12 Nordeste 0 927.3 2 53
2018-07-22 22:00:00 22 4 Norte 22 Norte 0 926.4 1.4 45
2018-07-22 21:00:00 24.3 10 Norte 24 Norte 0 925.8 0.8 36
2018-07-22 20:00:00 26.7 7 Noroeste 21 Noroeste 0 925.3 0 24
2018-07-22 19:00:00 29 4 Sudoeste 17 Sudoeste 0 925 -0.7 22
2018-07-22 18:00:00 30.1 5 Sudoeste 14 Oeste 0 925 -0.9 19
2018-07-22 17:00:00 28.7 4 Oeste 18 Sudoeste 0 925.3 -0.8 20
2018-07-22 16:00:00 28.2 4 Oeste 20 Noroeste 0 925.7 -0.9 24
2018-07-22 15:00:00 26.9 2 Sudoeste 18 Sudoeste 0 925.9 -0.7 29
2018-07-22 14:00:00 26 6 Sudoeste 17 Sudoeste 0 926.1 -0.5 30
2018-07-22 13:00:00 24.3 3 Este 14 Sudeste 0 926.6 -0.2 33
2018-07-22 12:00:00 23 4 Norte 16 Este 0 926.6 -0.3 43
2018-07-22 11:00:00 21.6 4 Nordeste 15 Sudeste 0 926.6 0.1 50
2018-07-22 10:00:00 18.9 8 Este 13 Este 0 926.8 0.7 58
2018-07-22 09:00:00 17 2 Nordeste 6 Este 0 926.9 0.9 62
2018-07-22 08:00:00 12.9 0 Calma -- -- 0 926.5 0.6 74
2018-07-22 07:00:00 9.7 0 Calma 4 Sudoeste 0 926.1 0 83
2018-07-22 06:00:00 10.5 0 Calma 6 Sudoeste 0 926 -0.4 82
2018-07-22 05:00:00 11.5 2 Sudoeste 5 Este 0 925.9 -0.7 78
2018-07-22 04:00:00 12.9 0 Calma 6 Sudoeste 0 926.1 -0.5 77
2018-07-22 03:00:00 13.7 0 Calma 5 Oeste 0 926.4 -0.2 73
2018-07-22 02:00:00 14.6 0 Calma 4 Sudoeste 0 926.6 -0.4 68
2018-07-22 01:00:00 15.9 3 Oeste 9 Noroeste 0 926.6 0.1 67
2018-07-22 00:00:00 17 2 Nordeste 9 Este 0 926.6 0.3 61
2018-07-21 23:00:00 17.8 0 Calma 7 Nordeste 0 927 0.8 57
2018-07-21 22:00:00 18.6 3 Noroeste 12 Noroeste 0 926.5 0.3 53
2018-07-21 21:00:00 19.4 4 Norte 10 Noroeste 0 926.3 0 52
2018-07-21 20:00:00 20.5 5 Norte 16 Noroeste 0 926.2 -0.3 43
2018-07-21 19:00:00 21.5 6 Noroeste 19 Noroeste 0 926.2 -0.7 45
2018-07-21 18:00:00 22.1 4 Noroeste 19 Noroeste 0 926.3 -0.7 45
2018-07-21 17:00:00 22.3 5 Noroeste 17 Noroeste 0 926.5 -0.8 45
2018-07-21 16:00:00 22.7 4 Noroeste 16 Oeste 0 926.9 -0.5 42
2018-07-21 15:00:00 23 5 Oeste 16 Oeste 0 927 -0.6 39
2018-07-21 14:00:00 22.6 4 Oeste 16 Noroeste 0 927.3 -0.4 45
2018-07-21 13:00:00 22.6 5 Sudoeste 15 Noroeste 0 927.4 -0.6 42
2018-07-21 12:00:00 21.8 3 Sur 13 Sudoeste 0 927.6 -0.2 44
2018-07-21 11:00:00 20.1 3 Sur 9 Sudeste 0 927.7 0.1 54
2018-07-21 10:00:00 18.7 3 Noroeste 8 Noroeste 0 928 0.6 60
2018-07-21 09:00:00 15.5 4 Este 8 Este 0 927.8 0.7 68
2018-07-21 08:00:00 13.3 0 Calma 4 Sudoeste 0 927.6 0.4 79
2018-07-21 07:00:00 10.1 0 Calma 3 Sudoeste 0 927.4 0.1 86
2018-07-21 06:00:00 10.4 0 Calma 5 Sudoeste 0 927.1 -0.4 85
2018-07-21 05:00:00 11 0 Calma 7 Sudoeste 0 927.2 -0.6 84
2018-07-21 04:00:00 11.8 3 Sudoeste 8 Noroeste 0 927.3 -0.3 83
2018-07-21 03:00:00 12.5 4 Noroeste 9 Noroeste 0 927.5 0.3 82
2018-07-21 02:00:00 13 2 Noroeste 8 Sudeste 0 927.8 0.6 80
2018-07-21 01:00:00 13.8 3 Noroeste 18 Noroeste 0 927.6 1.1 78
2018-07-21 00:00:00 14.9 7 Norte 24 Noroeste 0 927.2 0.7 74
2018-07-20 23:00:00 16.4 5 Noroeste 13 Norte 0 927.2 1 73
2018-07-20 22:00:00 18.2 2 Sur 9 Oeste 0 926.5 1.3 73
2018-07-20 21:00:00 19.8 5 Noroeste 12 Nordeste 0 926.5 0.6 61
2018-07-20 20:00:00 19.2 5 Nordeste 23 Norte 0 926.2 1.7 63
2018-07-20 19:00:00 18.3 14 Norte 45 Noroeste 1.4 925.2 0.4 68
2018-07-20 18:00:00 21.3 16 Norte 45 Norte 0 925.9 0.8 58
2018-07-20 17:00:00 25.3 16 Norte 39 Norte 0 924.5 -1.2 40
2018-07-20 16:00:00 26.5 16 Norte 37 Noroeste 0 924.8 -1.2 39
2018-07-20 15:00:00 26.7 6 Oeste 25 Oeste 0 925.1 -1.1 34
2018-07-20 14:00:00 26.7 5 Oeste 20 Sudoeste 0 925.7 -0.8 39
2018-07-20 13:00:00 25.7 3 Oeste 16 Oeste 0 926 -0.6 47
2018-07-20 12:00:00 24.5 4 Sudoeste 15 Sudoeste 0 926.2 -0.3 47
2018-07-20 11:00:00 23.3 3 Oeste 12 Oeste 0 926.5 0.3 49
2018-07-20 10:00:00 21.3 5 Sudoeste 19 Sudoeste 0 926.6 0.6 50
2018-07-20 09:00:00 18.2 2 Sur 9 Sudoeste 0 926.5 0.7 61
2018-07-20 08:00:00 13.9 3 Este 9 Sudeste 0 926.2 0.4 85
2018-07-20 07:00:00 11.8 0 Calma 3 Sudoeste 0 926 0.2 86
2018-07-20 06:00:00 12.5 0 Calma 4 Este 0 925.8 -0.3 84
2018-07-20 05:00:00 13.2 0 Calma 5 Sudoeste 0 925.8 -0.5 84
2018-07-20 04:00:00 13.9 3 Sudoeste 7 Sudoeste 0 925.8 -0.6 82
2018-07-20 03:00:00 14.9 2 Sudoeste 7 Sudoeste 0 926.1 -0.1 81
2018-07-20 02:00:00 16 3 Sudoeste 8 Oeste 0 926.3 0.6 81
2018-07-20 01:00:00 17.3 4 Oeste 12 Oeste 0 926.4 1.4 77
2018-07-20 00:00:00 19.2 4 Sudoeste 10 Sudoeste 0 926.2 1.7 68